sensor_id;sensor_type;location;lat;lon;timestamp;temperature;humidity
21906;DHT22;11117;48.644;9.006;2023-07-28T00:00:57;16.80;99.90
21906;DHT22;11117;48.644;9.006;2023-07-28T00:03:22;16.80;99.90
21906;DHT22;11117;48.644;9.006;2023-07-28T00:05:48;16.70;99.90
21906;DHT22;11117;48.644;9.006;2023-07-28T00:08:14;16.70;99.90
21906;DHT22;11117;48.644;9.006;2023-07-28T00:10:42;16.70;99.90
21906;DHT22;11117;48.644;9.006;2023-07-28T00:13:09;16.60;99.90
21906;DHT22;11117;48.644;9.006;2023-07-28T00:15:35;16.60;99.90
21906;DHT22;11117;48.644;9.006;2023-07-28T00:18:00;16.60;99.90
21906;DHT22;11117;48.644;9.006;2023-07-28T00:20:26;16.50;99.90
21906;DHT22;11117;48.644;9.006;2023-07-28T00:22:51;16.40;99.90
21906;DHT22;11117;48.644;9.006;2023-07-28T00:25:17;16.30;99.90
21906;DHT22;11117;48.644;9.006;2023-07-28T00:27:42;16.20;99.90
21906;DHT22;11117;48.644;9.006;2023-07-28T00:30:09;16.20;99.90
21906;DHT22;11117;48.644;9.006;2023-07-28T00:32:35;16.20;99.90
21906;DHT22;11117;48.644;9.006;2023-07-28T00:35:01;16.20;99.90
21906;DHT22;11117;48.644;9.006;2023-07-28T00:37:26;16.20;99.90
21906;DHT22;11117;48.644;9.006;2023-07-28T00:39:52;16.10;99.90
21906;DHT22;11117;48.644;9.006;2023-07-28T00:42:17;16.00;99.90
21906;DHT22;11117;48.644;9.006;2023-07-28T00:44:43;16.00;99.90
21906;DHT22;11117;48.644;9.006;2023-07-28T00:47:08;16.00;99.90
21906;DHT22;11117;48.644;9.006;2023-07-28T00:49:34;15.90;99.90
21906;DHT22;11117;48.644;9.006;2023-07-28T00:52:00;16.00;99.90
21906;DHT22;11117;48.644;9.006;2023-07-28T00:54:25;16.00;99.90
21906;DHT22;11117;48.644;9.006;2023-07-28T00:56:51;16.00;99.90
21906;DHT22;11117;48.644;9.006;2023-07-28T00:59:17;15.90;99.90
21906;DHT22;11117;48.644;9.006;2023-07-28T01:01:43;15.90;99.90
21906;DHT22;11117;48.644;9.006;2023-07-28T01:04:08;15.90;99.90
21906;DHT22;11117;48.644;9.006;2023-07-28T01:06:46;15.90;99.90
21906;DHT22;11117;48.644;9.006;2023-07-28T01:09:16;15.90;99.90
21906;DHT22;11117;48.644;9.006;2023-07-28T01:11:57;15.80;99.90
21906;DHT22;11117;48.644;9.006;2023-07-28T01:14:23;15.80;99.90
21906;DHT22;11117;48.644;9.006;2023-07-28T01:16:48;15.90;99.90
21906;DHT22;11117;48.644;9.006;2023-07-28T01:19:17;15.80;99.90
21906;DHT22;11117;48.644;9.006;2023-07-28T01:21:43;15.90;99.90
21906;DHT22;11117;48.644;9.006;2023-07-28T01:24:29;15.80;99.90
21906;DHT22;11117;48.644;9.006;2023-07-28T01:27:01;15.80;99.90
21906;DHT22;11117;48.644;9.006;2023-07-28T01:29:27;15.80;99.90
21906;DHT22;11117;48.644;9.006;2023-07-28T01:31:53;15.70;99.90
21906;DHT22;11117;48.644;9.006;2023-07-28T01:34:18;15.70;99.90
21906;DHT22;11117;48.644;9.006;2023-07-28T01:36:44;15.70;99.90
21906;DHT22;11117;48.644;9.006;2023-07-28T01:39:09;15.60;99.90
21906;DHT22;11117;48.644;9.006;2023-07-28T01:41:35;15.50;99.90
21906;DHT22;11117;48.644;9.006;2023-07-28T01:44:00;15.50;99.90
21906;DHT22;11117;48.644;9.006;2023-07-28T01:46:26;15.40;99.90
21906;DHT22;11117;48.644;9.006;2023-07-28T01:48:51;15.40;99.90
21906;DHT22;11117;48.644;9.006;2023-07-28T01:51:17;15.40;99.90
21906;DHT22;11117;48.644;9.006;2023-07-28T01:53:42;15.40;99.90
21906;DHT22;11117;48.644;9.006;2023-07-28T01:56:08;15.40;99.90
21906;DHT22;11117;48.644;9.006;2023-07-28T01:58:33;15.40;99.90
21906;DHT22;11117;48.644;9.006;2023-07-28T02:00:59;15.50;99.90
21906;DHT22;11117;48.644;9.006;2023-07-28T02:03:24;15.50;99.90
21906;DHT22;11117;48.644;9.006;2023-07-28T02:05:50;15.50;99.90
21906;DHT22;11117;48.644;9.006;2023-07-28T02:08:16;15.50;99.90
21906;DHT22;11117;48.644;9.006;2023-07-28T02:10:42;15.60;99.90
21906;DHT22;11117;48.644;9.006;2023-07-28T02:13:08;15.60;99.90
21906;DHT22;11117;48.644;9.006;2023-07-28T02:15:33;15.60;99.90
21906;DHT22;11117;48.644;9.006;2023-07-28T02:17:59;15.60;99.90
21906;DHT22;11117;48.644;9.006;2023-07-28T02:20:24;15.60;99.90
21906;DHT22;11117;48.644;9.006;2023-07-28T02:22:50;15.50;99.90
21906;DHT22;11117;48.644;9.006;2023-07-28T02:25:15;15.60;99.90
21906;DHT22;11117;48.644;9.006;2023-07-28T02:27:41;15.50;99.90
21906;DHT22;11117;48.644;9.006;2023-07-28T02:30:07;15.40;99.90
21906;DHT22;11117;48.644;9.006;2023-07-28T02:32:33;15.40;99.90
21906;DHT22;11117;48.644;9.006;2023-07-28T02:34:58;15.40;99.90
21906;DHT22;11117;48.644;9.006;2023-07-28T02:37:24;15.40;99.90
21906;DHT22;11117;48.644;9.006;2023-07-28T02:39:50;15.40;99.90
21906;DHT22;11117;48.644;9.006;2023-07-28T02:42:16;15.40;99.90
21906;DHT22;11117;48.644;9.006;2023-07-28T02:44:41;15.30;99.90
21906;DHT22;11117;48.644;9.006;2023-07-28T02:47:07;15.20;99.90
21906;DHT22;11117;48.644;9.006;2023-07-28T02:49:32;15.10;99.90
21906;DHT22;11117;48.644;9.006;2023-07-28T02:51:58;15.10;99.90
21906;DHT22;11117;48.644;9.006;2023-07-28T02:54:23;15.10;99.90
21906;DHT22;11117;48.644;9.006;2023-07-28T02:56:49;15.20;99.90
21906;DHT22;11117;48.644;9.006;2023-07-28T02:59:15;15.30;99.90
21906;DHT22;11117;48.644;9.006;2023-07-28T03:01:40;15.30;99.90
21906;DHT22;11117;48.644;9.006;2023-07-28T03:04:06;15.40;99.90
21906;DHT22;11117;48.644;9.006;2023-07-28T03:06:31;15.40;99.90
21906;DHT22;11117;48.644;9.006;2023-07-28T03:08:59;15.40;99.90
21906;DHT22;11117;48.644;9.006;2023-07-28T03:11:25;15.50;99.90
21906;DHT22;11117;48.644;9.006;2023-07-28T03:13:52;15.50;99.90
21906;DHT22;11117;48.644;9.006;2023-07-28T03:16:18;15.50;99.90
21906;DHT22;11117;48.644;9.006;2023-07-28T03:18:43;15.50;99.90
21906;DHT22;11117;48.644;9.006;2023-07-28T03:21:09;15.60;99.90
21906;DHT22;11117;48.644;9.006;2023-07-28T03:23:35;15.60;99.90
21906;DHT22;11117;48.644;9.006;2023-07-28T03:26:00;15.70;99.90
21906;DHT22;11117;48.644;9.006;2023-07-28T03:28:26;15.80;99.90
21906;DHT22;11117;48.644;9.006;2023-07-28T03:30:52;15.80;99.90
21906;DHT22;11117;48.644;9.006;2023-07-28T03:33:17;15.80;99.90
21906;DHT22;11117;48.644;9.006;2023-07-28T03:35:43;15.90;99.90
21906;DHT22;11117;48.644;9.006;2023-07-28T03:38:08;15.90;99.90
21906;DHT22;11117;48.644;9.006;2023-07-28T03:40:34;16.00;99.90
21906;DHT22;11117;48.644;9.006;2023-07-28T03:42:59;16.10;99.90
21906;DHT22;11117;48.644;9.006;2023-07-28T03:45:25;16.10;99.90
21906;DHT22;11117;48.644;9.006;2023-07-28T03:47:50;16.10;99.90
21906;DHT22;11117;48.644;9.006;2023-07-28T03:50:16;16.10;99.90
21906;DHT22;11117;48.644;9.006;2023-07-28T03:52:42;16.10;99.90
21906;DHT22;11117;48.644;9.006;2023-07-28T03:55:07;16.20;99.90
21906;DHT22;11117;48.644;9.006;2023-07-28T03:57:33;16.20;99.90
21906;DHT22;11117;48.644;9.006;2023-07-28T03:59:58;16.30;99.90
21906;DHT22;11117;48.644;9.006;2023-07-28T04:02:24;16.30;99.90
21906;DHT22;11117;48.644;9.006;2023-07-28T04:04:56;16.30;99.90
21906;DHT22;11117;48.644;9.006;2023-07-28T04:07:22;16.40;99.90
21906;DHT22;11117;48.644;9.006;2023-07-28T04:09:47;16.40;99.90
21906;DHT22;11117;48.644;9.006;2023-07-28T04:12:13;16.40;99.90
21906;DHT22;11117;48.644;9.006;2023-07-28T04:14:39;16.40;99.90
21906;DHT22;11117;48.644;9.006;2023-07-28T04:17:04;16.40;99.90
21906;DHT22;11117;48.644;9.006;2023-07-28T04:19:30;16.40;99.90
21906;DHT22;11117;48.644;9.006;2023-07-28T04:22:00;16.50;99.90
21906;DHT22;11117;48.644;9.006;2023-07-28T04:24:25;16.50;99.90
21906;DHT22;11117;48.644;9.006;2023-07-28T04:26:51;16.60;99.90
21906;DHT22;11117;48.644;9.006;2023-07-28T04:29:17;16.70;99.90
21906;DHT22;11117;48.644;9.006;2023-07-28T04:31:42;16.70;99.90
21906;DHT22;11117;48.644;9.006;2023-07-28T04:34:08;16.80;99.90
21906;DHT22;11117;48.644;9.006;2023-07-28T04:36:33;16.90;99.90
21906;DHT22;11117;48.644;9.006;2023-07-28T04:38:59;16.90;99.90
21906;DHT22;11117;48.644;9.006;2023-07-28T04:41:24;17.10;99.90
21906;DHT22;11117;48.644;9.006;2023-07-28T04:43:50;17.20;99.90
21906;DHT22;11117;48.644;9.006;2023-07-28T04:46:15;17.20;99.90
21906;DHT22;11117;48.644;9.006;2023-07-28T04:48:41;17.30;99.90
21906;DHT22;11117;48.644;9.006;2023-07-28T04:51:07;17.30;99.90
21906;DHT22;11117;48.644;9.006;2023-07-28T04:53:32;17.40;99.90
21906;DHT22;11117;48.644;9.006;2023-07-28T04:55:58;17.50;99.90
21906;DHT22;11117;48.644;9.006;2023-07-28T04:58:23;17.50;99.90
21906;DHT22;11117;48.644;9.006;2023-07-28T05:00:49;17.50;99.90
21906;DHT22;11117;48.644;9.006;2023-07-28T05:03:14;17.50;99.90
21906;DHT22;11117;48.644;9.006;2023-07-28T05:05:43;17.50;99.90
21906;DHT22;11117;48.644;9.006;2023-07-28T05:08:09;17.50;99.90
21906;DHT22;11117;48.644;9.006;2023-07-28T05:10:34;17.50;99.90
21906;DHT22;11117;48.644;9.006;2023-07-28T05:13:00;17.40;99.90
21906;DHT22;11117;48.644;9.006;2023-07-28T05:15:25;17.50;99.90
21906;DHT22;11117;48.644;9.006;2023-07-28T05:17:51;17.60;99.90
21906;DHT22;11117;48.644;9.006;2023-07-28T05:20:16;17.60;99.90
21906;DHT22;11117;48.644;9.006;2023-07-28T05:22:42;17.70;99.90
21906;DHT22;11117;48.644;9.006;2023-07-28T05:25:07;17.70;99.90
21906;DHT22;11117;48.644;9.006;2023-07-28T05:27:33;17.70;99.90
21906;DHT22;11117;48.644;9.006;2023-07-28T05:29:59;17.80;99.90
21906;DHT22;11117;48.644;9.006;2023-07-28T05:32:24;17.90;99.90
21906;DHT22;11117;48.644;9.006;2023-07-28T05:34:50;17.90;99.90
21906;DHT22;11117;48.644;9.006;2023-07-28T05:37:15;17.90;99.90
21906;DHT22;11117;48.644;9.006;2023-07-28T05:39:41;17.80;99.90
21906;DHT22;11117;48.644;9.006;2023-07-28T05:42:06;17.80;99.90
21906;DHT22;11117;48.644;9.006;2023-07-28T05:44:32;17.80;99.90
21906;DHT22;11117;48.644;9.006;2023-07-28T05:46:57;17.90;99.90
21906;DHT22;11117;48.644;9.006;2023-07-28T05:49:23;17.80;99.90
21906;DHT22;11117;48.644;9.006;2023-07-28T05:51:48;17.80;99.90
21906;DHT22;11117;48.644;9.006;2023-07-28T05:54:14;17.60;99.90
21906;DHT22;11117;48.644;9.006;2023-07-28T05:56:39;17.50;99.90
21906;DHT22;11117;48.644;9.006;2023-07-28T05:59:05;17.40;99.90
21906;DHT22;11117;48.644;9.006;2023-07-28T06:01:31;17.40;99.90
21906;DHT22;11117;48.644;9.006;2023-07-28T06:03:58;17.20;99.90
21906;DHT22;11117;48.644;9.006;2023-07-28T06:06:24;17.10;99.90
21906;DHT22;11117;48.644;9.006;2023-07-28T06:08:49;17.00;99.90
21906;DHT22;11117;48.644;9.006;2023-07-28T06:11:15;17.10;99.90
21906;DHT22;11117;48.644;9.006;2023-07-28T06:13:41;17.00;99.90
21906;DHT22;11117;48.644;9.006;2023-07-28T06:16:06;17.10;99.90
21906;DHT22;11117;48.644;9.006;2023-07-28T06:18:32;17.10;99.90
21906;DHT22;11117;48.644;9.006;2023-07-28T06:20:57;17.10;99.90
21906;DHT22;11117;48.644;9.006;2023-07-28T06:23:23;17.10;99.90
21906;DHT22;11117;48.644;9.006;2023-07-28T06:25:48;17.10;99.90
21906;DHT22;11117;48.644;9.006;2023-07-28T06:28:14;17.00;99.90
21906;DHT22;11117;48.644;9.006;2023-07-28T06:30:39;17.00;99.90
21906;DHT22;11117;48.644;9.006;2023-07-28T06:33:09;17.00;99.90
21906;DHT22;11117;48.644;9.006;2023-07-28T06:35:34;17.00;99.90
21906;DHT22;11117;48.644;9.006;2023-07-28T06:38:01;17.10;99.90
21906;DHT22;11117;48.644;9.006;2023-07-28T06:40:26;17.10;99.90
21906;DHT22;11117;48.644;9.006;2023-07-28T06:42:52;17.20;99.90
21906;DHT22;11117;48.644;9.006;2023-07-28T06:45:17;17.40;99.90
21906;DHT22;11117;48.644;9.006;2023-07-28T06:47:43;17.60;99.90
21906;DHT22;11117;48.644;9.006;2023-07-28T06:50:10;17.80;99.90
21906;DHT22;11117;48.644;9.006;2023-07-28T06:52:35;18.10;99.90
21906;DHT22;11117;48.644;9.006;2023-07-28T06:55:01;18.30;99.90
21906;DHT22;11117;48.644;9.006;2023-07-28T06:57:27;18.60;99.90
21906;DHT22;11117;48.644;9.006;2023-07-28T06:59:52;18.80;99.90
21906;DHT22;11117;48.644;9.006;2023-07-28T07:02:18;19.00;99.90
21906;DHT22;11117;48.644;9.006;2023-07-28T07:04:43;19.20;99.90
21906;DHT22;11117;48.644;9.006;2023-07-28T07:07:09;19.40;99.90
21906;DHT22;11117;48.644;9.006;2023-07-28T07:09:35;19.60;99.90
21906;DHT22;11117;48.644;9.006;2023-07-28T07:12:00;19.80;99.90
21906;DHT22;11117;48.644;9.006;2023-07-28T07:14:26;19.90;99.90
21906;DHT22;11117;48.644;9.006;2023-07-28T07:16:51;20.00;99.90
21906;DHT22;11117;48.644;9.006;2023-07-28T07:19:17;20.10;99.90
21906;DHT22;11117;48.644;9.006;2023-07-28T07:21:42;20.20;99.90
21906;DHT22;11117;48.644;9.006;2023-07-28T07:24:08;20.30;99.90
21906;DHT22;11117;48.644;9.006;2023-07-28T07:26:33;20.60;99.90
21906;DHT22;11117;48.644;9.006;2023-07-28T07:28:59;20.80;99.90
21906;DHT22;11117;48.644;9.006;2023-07-28T07:31:24;21.00;99.90
21906;DHT22;11117;48.644;9.006;2023-07-28T07:33:50;21.20;99.90
21906;DHT22;11117;48.644;9.006;2023-07-28T07:36:17;21.40;99.90
21906;DHT22;11117;48.644;9.006;2023-07-28T07:38:44;21.40;99.90
21906;DHT22;11117;48.644;9.006;2023-07-28T07:41:10;21.50;99.90
21906;DHT22;11117;48.644;9.006;2023-07-28T07:43:35;21.60;99.90
21906;DHT22;11117;48.644;9.006;2023-07-28T07:46:01;21.60;99.90
21906;DHT22;11117;48.644;9.006;2023-07-28T07:48:26;21.80;99.90
21906;DHT22;11117;48.644;9.006;2023-07-28T07:50:52;21.80;99.90
21906;DHT22;11117;48.644;9.006;2023-07-28T07:53:18;21.80;99.90
21906;DHT22;11117;48.644;9.006;2023-07-28T07:55:44;21.80;99.90
21906;DHT22;11117;48.644;9.006;2023-07-28T07:58:09;21.80;99.90
21906;DHT22;11117;48.644;9.006;2023-07-28T08:00:37;21.70;99.90
21906;DHT22;11117;48.644;9.006;2023-07-28T08:03:03;21.30;99.90
21906;DHT22;11117;48.644;9.006;2023-07-28T08:05:29;21.40;99.90
21906;DHT22;11117;48.644;9.006;2023-07-28T08:07:54;21.80;99.90
21906;DHT22;11117;48.644;9.006;2023-07-28T08:10:20;22.20;99.90
21906;DHT22;11117;48.644;9.006;2023-07-28T08:12:45;22.30;99.90
21906;DHT22;11117;48.644;9.006;2023-07-28T08:15:11;22.50;99.90
21906;DHT22;11117;48.644;9.006;2023-07-28T08:17:37;22.70;99.90
21906;DHT22;11117;48.644;9.006;2023-07-28T08:20:02;23.00;99.90
21906;DHT22;11117;48.644;9.006;2023-07-28T08:22:28;23.20;99.90
21906;DHT22;11117;48.644;9.006;2023-07-28T08:24:53;23.30;99.90
21906;DHT22;11117;48.644;9.006;2023-07-28T08:27:19;23.40;99.90
21906;DHT22;11117;48.644;9.006;2023-07-28T08:29:44;23.30;99.90
21906;DHT22;11117;48.644;9.006;2023-07-28T08:32:10;23.20;99.90
21906;DHT22;11117;48.644;9.006;2023-07-28T08:34:35;23.00;99.90
21906;DHT22;11117;48.644;9.006;2023-07-28T08:37:01;23.00;99.90
21906;DHT22;11117;48.644;9.006;2023-07-28T08:39:27;22.90;99.90
21906;DHT22;11117;48.644;9.006;2023-07-28T08:42:02;22.80;99.90
21906;DHT22;11117;48.644;9.006;2023-07-28T08:44:34;22.70;99.90
21906;DHT22;11117;48.644;9.006;2023-07-28T08:47:01;22.80;99.90
21906;DHT22;11117;48.644;9.006;2023-07-28T08:49:26;22.90;99.90
21906;DHT22;11117;48.644;9.006;2023-07-28T08:51:57;22.90;99.90
21906;DHT22;11117;48.644;9.006;2023-07-28T08:54:23;23.00;99.90
21906;DHT22;11117;48.644;9.006;2023-07-28T08:56:48;23.10;99.90
21906;DHT22;11117;48.644;9.006;2023-07-28T08:59:21;23.20;99.90
21906;DHT22;11117;48.644;9.006;2023-07-28T09:01:50;23.20;99.90
21906;DHT22;11117;48.644;9.006;2023-07-28T09:04:15;23.00;99.90
21906;DHT22;11117;48.644;9.006;2023-07-28T09:06:45;23.00;99.90
21906;DHT22;11117;48.644;9.006;2023-07-28T09:09:10;23.10;99.90
21906;DHT22;11117;48.644;9.006;2023-07-28T09:11:46;23.10;99.90
21906;DHT22;11117;48.644;9.006;2023-07-28T09:14:13;23.10;99.90
21906;DHT22;11117;48.644;9.006;2023-07-28T09:16:38;23.10;99.90
21906;DHT22;11117;48.644;9.006;2023-07-28T09:19:05;23.00;99.90
21906;DHT22;11117;48.644;9.006;2023-07-28T09:21:32;23.00;99.90
21906;DHT22;11117;48.644;9.006;2023-07-28T09:24:00;22.80;99.90
21906;DHT22;11117;48.644;9.006;2023-07-28T09:26:46;22.50;99.90
21906;DHT22;11117;48.644;9.006;2023-07-28T09:29:19;22.30;99.90
21906;DHT22;11117;48.644;9.006;2023-07-28T09:31:46;22.10;99.90
21906;DHT22;11117;48.644;9.006;2023-07-28T09:34:12;22.30;99.90
21906;DHT22;11117;48.644;9.006;2023-07-28T09:36:38;22.40;99.90
21906;DHT22;11117;48.644;9.006;2023-07-28T09:39:05;22.60;99.90
21906;DHT22;11117;48.644;9.006;2023-07-28T09:41:30;22.60;99.90
21906;DHT22;11117;48.644;9.006;2023-07-28T09:43:58;22.70;99.90
21906;DHT22;11117;48.644;9.006;2023-07-28T09:46:24;22.90;99.90
21906;DHT22;11117;48.644;9.006;2023-07-28T09:51:54;22.70;99.90
21906;DHT22;11117;48.644;9.006;2023-07-28T09:54:28;22.70;99.90
21906;DHT22;11117;48.644;9.006;2023-07-28T09:56:55;22.70;99.90
21906;DHT22;11117;48.644;9.006;2023-07-28T09:59:22;22.80;99.90
21906;DHT22;11117;48.644;9.006;2023-07-28T10:01:49;22.80;99.90
21906;DHT22;11117;48.644;9.006;2023-07-28T10:04:15;22.60;99.90
21906;DHT22;11117;48.644;9.006;2023-07-28T10:06:41;22.80;99.90
21906;DHT22;11117;48.644;9.006;2023-07-28T10:09:06;22.90;99.90
21906;DHT22;11117;48.644;9.006;2023-07-28T10:11:32;22.80;99.90
21906;DHT22;11117;48.644;9.006;2023-07-28T10:13:58;22.80;99.90
21906;DHT22;11117;48.644;9.006;2023-07-28T10:16:31;22.60;99.90
21906;DHT22;11117;48.644;9.006;2023-07-28T10:18:58;22.90;99.90
21906;DHT22;11117;48.644;9.006;2023-07-28T10:21:27;23.10;99.90
21906;DHT22;11117;48.644;9.006;2023-07-28T10:23:58;23.20;99.90
21906;DHT22;11117;48.644;9.006;2023-07-28T10:26:40;23.30;99.90
21906;DHT22;11117;48.644;9.006;2023-07-28T10:29:15;23.30;99.90
21906;DHT22;11117;48.644;9.006;2023-07-28T10:31:51;23.20;99.90
21906;DHT22;11117;48.644;9.006;2023-07-28T10:34:18;23.30;99.90
21906;DHT22;11117;48.644;9.006;2023-07-28T10:36:44;23.40;99.90
21906;DHT22;11117;48.644;9.006;2023-07-28T10:39:17;23.30;99.90
21906;DHT22;11117;48.644;9.006;2023-07-28T10:42:04;23.50;99.90
21906;DHT22;11117;48.644;9.006;2023-07-28T10:44:30;23.50;99.90
21906;DHT22;11117;48.644;9.006;2023-07-28T10:46:56;23.50;99.90
21906;DHT22;11117;48.644;9.006;2023-07-28T10:49:21;23.50;99.90
21906;DHT22;11117;48.644;9.006;2023-07-28T10:51:47;23.50;99.90
21906;DHT22;11117;48.644;9.006;2023-07-28T10:54:13;23.80;99.90
21906;DHT22;11117;48.644;9.006;2023-07-28T10:56:39;23.90;99.90
21906;DHT22;11117;48.644;9.006;2023-07-28T10:59:04;24.10;99.90
21906;DHT22;11117;48.644;9.006;2023-07-28T11:01:37;24.20;99.90
21906;DHT22;11117;48.644;9.006;2023-07-28T11:04:18;24.10;99.90
21906;DHT22;11117;48.644;9.006;2023-07-28T11:06:48;24.10;99.90
21906;DHT22;11117;48.644;9.006;2023-07-28T11:09:16;24.10;99.90
21906;DHT22;11117;48.644;9.006;2023-07-28T11:11:43;24.20;99.90
21906;DHT22;11117;48.644;9.006;2023-07-28T11:14:09;24.40;99.90
21906;DHT22;11117;48.644;9.006;2023-07-28T11:16:41;24.50;99.90
21906;DHT22;11117;48.644;9.006;2023-07-28T11:19:11;24.80;99.90
21906;DHT22;11117;48.644;9.006;2023-07-28T11:21:40;25.00;99.90
21906;DHT22;11117;48.644;9.006;2023-07-28T11:24:10;24.80;99.90
21906;DHT22;11117;48.644;9.006;2023-07-28T11:26:37;24.50;99.90
21906;DHT22;11117;48.644;9.006;2023-07-28T11:29:04;24.10;99.90
21906;DHT22;11117;48.644;9.006;2023-07-28T11:31:30;23.60;99.90
21906;DHT22;11117;48.644;9.006;2023-07-28T11:33:58;23.50;99.90
21906;DHT22;11117;48.644;9.006;2023-07-28T11:36:28;23.40;99.90
21906;DHT22;11117;48.644;9.006;2023-07-28T11:38:58;23.30;99.90
21906;DHT22;11117;48.644;9.006;2023-07-28T11:41:24;23.40;99.90
21906;DHT22;11117;48.644;9.006;2023-07-28T11:43:51;23.20;99.90
21906;DHT22;11117;48.644;9.006;2023-07-28T11:49:10;22.60;99.90
21906;DHT22;11117;48.644;9.006;2023-07-28T11:51:40;22.50;99.90
21906;DHT22;11117;48.644;9.006;2023-07-28T11:54:06;22.20;99.90
21906;DHT22;11117;48.644;9.006;2023-07-28T11:56:32;22.60;99.90
21906;DHT22;11117;48.644;9.006;2023-07-28T11:58:58;22.70;99.90
21906;DHT22;11117;48.644;9.006;2023-07-28T12:01:23;22.80;99.90
21906;DHT22;11117;48.644;9.006;2023-07-28T12:03:49;23.00;99.90
21906;DHT22;11117;48.644;9.006;2023-07-28T12:06:15;23.10;99.90
21906;DHT22;11117;48.644;9.006;2023-07-28T12:08:40;23.20;99.90
21906;DHT22;11117;48.644;9.006;2023-07-28T12:11:12;23.50;99.90
21906;DHT22;11117;48.644;9.006;2023-07-28T12:13:56;23.60;99.90
21906;DHT22;11117;48.644;9.006;2023-07-28T12:16:41;24.10;99.90
21906;DHT22;11117;48.644;9.006;2023-07-28T12:19:06;24.20;99.90
21906;DHT22;11117;48.644;9.006;2023-07-28T12:21:32;24.00;99.90
21906;DHT22;11117;48.644;9.006;2023-07-28T12:23:57;24.20;99.90
21906;DHT22;11117;48.644;9.006;2023-07-28T12:26:23;24.30;99.90
21906;DHT22;11117;48.644;9.006;2023-07-28T12:28:49;24.50;99.90
21906;DHT22;11117;48.644;9.006;2023-07-28T12:31:14;24.60;99.90
21906;DHT22;11117;48.644;9.006;2023-07-28T12:33:40;24.60;99.90
21906;DHT22;11117;48.644;9.006;2023-07-28T12:36:05;24.90;99.90
21906;DHT22;11117;48.644;9.006;2023-07-28T12:38:31;25.00;99.90
21906;DHT22;11117;48.644;9.006;2023-07-28T12:40:56;25.00;99.90
21906;DHT22;11117;48.644;9.006;2023-07-28T12:43:22;25.10;99.90
21906;DHT22;11117;48.644;9.006;2023-07-28T12:45:48;25.20;99.90
21906;DHT22;11117;48.644;9.006;2023-07-28T12:48:13;25.40;99.90
21906;DHT22;11117;48.644;9.006;2023-07-28T12:50:39;25.20;99.90
21906;DHT22;11117;48.644;9.006;2023-07-28T12:53:04;25.00;99.90
21906;DHT22;11117;48.644;9.006;2023-07-28T12:55:30;24.80;99.90
21906;DHT22;11117;48.644;9.006;2023-07-28T12:57:55;24.80;99.90
21906;DHT22;11117;48.644;9.006;2023-07-28T13:00:21;24.60;99.90
21906;DHT22;11117;48.644;9.006;2023-07-28T13:02:46;24.40;99.90
21906;DHT22;11117;48.644;9.006;2023-07-28T13:05:13;24.30;99.90
21906;DHT22;11117;48.644;9.006;2023-07-28T13:07:39;24.20;99.90
21906;DHT22;11117;48.644;9.006;2023-07-28T13:10:09;24.00;99.90
21906;DHT22;11117;48.644;9.006;2023-07-28T13:12:35;24.00;99.90
21906;DHT22;11117;48.644;9.006;2023-07-28T13:15:01;23.80;99.90
21906;DHT22;11117;48.644;9.006;2023-07-28T13:17:27;23.80;99.90
21906;DHT22;11117;48.644;9.006;2023-07-28T13:19:53;23.70;99.90
21906;DHT22;11117;48.644;9.006;2023-07-28T13:22:18;23.70;99.90
21906;DHT22;11117;48.644;9.006;2023-07-28T13:24:44;23.60;99.90
21906;DHT22;11117;48.644;9.006;2023-07-28T13:27:09;23.50;99.90
21906;DHT22;11117;48.644;9.006;2023-07-28T13:29:35;23.50;99.90
21906;DHT22;11117;48.644;9.006;2023-07-28T13:32:01;23.50;99.90
21906;DHT22;11117;48.644;9.006;2023-07-28T13:34:27;23.30;99.90
21906;DHT22;11117;48.644;9.006;2023-07-28T13:36:53;23.30;99.90
21906;DHT22;11117;48.644;9.006;2023-07-28T13:39:18;23.10;99.90
21906;DHT22;11117;48.644;9.006;2023-07-28T13:41:44;22.90;99.90
21906;DHT22;11117;48.644;9.006;2023-07-28T13:44:09;22.90;99.90
21906;DHT22;11117;48.644;9.006;2023-07-28T13:46:35;22.90;99.90
21906;DHT22;11117;48.644;9.006;2023-07-28T13:49:00;22.80;99.90
21906;DHT22;11117;48.644;9.006;2023-07-28T13:51:26;22.30;99.90
21906;DHT22;11117;48.644;9.006;2023-07-28T13:53:52;21.80;99.90
21906;DHT22;11117;48.644;9.006;2023-07-28T13:56:18;21.20;99.90
21906;DHT22;11117;48.644;9.006;2023-07-28T13:58:43;20.90;99.90
21906;DHT22;11117;48.644;9.006;2023-07-28T14:01:09;20.80;99.90
21906;DHT22;11117;48.644;9.006;2023-07-28T14:03:34;20.90;99.90
21906;DHT22;11117;48.644;9.006;2023-07-28T14:06:00;20.70;99.90
21906;DHT22;11117;48.644;9.006;2023-07-28T14:08:25;20.50;99.90
21906;DHT22;11117;48.644;9.006;2023-07-28T14:10:52;20.50;99.90
21906;DHT22;11117;48.644;9.006;2023-07-28T14:13:17;20.30;99.90
21906;DHT22;11117;48.644;9.006;2023-07-28T14:15:43;20.40;99.90
21906;DHT22;11117;48.644;9.006;2023-07-28T14:18:08;20.20;99.90
21906;DHT22;11117;48.644;9.006;2023-07-28T14:20:34;20.30;99.90
21906;DHT22;11117;48.644;9.006;2023-07-28T14:23:00;20.50;99.90
21906;DHT22;11117;48.644;9.006;2023-07-28T14:25:25;20.50;99.90
21906;DHT22;11117;48.644;9.006;2023-07-28T14:27:51;20.40;99.90
21906;DHT22;11117;48.644;9.006;2023-07-28T14:30:16;20.40;99.90
21906;DHT22;11117;48.644;9.006;2023-07-28T14:32:42;20.40;99.90
21906;DHT22;11117;48.644;9.006;2023-07-28T14:35:07;20.50;99.90
21906;DHT22;11117;48.644;9.006;2023-07-28T14:37:33;20.50;99.90
21906;DHT22;11117;48.644;9.006;2023-07-28T14:39:58;20.50;99.90
21906;DHT22;11117;48.644;9.006;2023-07-28T14:42:24;20.40;99.90
21906;DHT22;11117;48.644;9.006;2023-07-28T14:44:50;20.60;99.90
21906;DHT22;11117;48.644;9.006;2023-07-28T14:47:15;20.80;99.90
21906;DHT22;11117;48.644;9.006;2023-07-28T14:49:41;20.90;99.90
21906;DHT22;11117;48.644;9.006;2023-07-28T14:52:06;21.00;99.90
21906;DHT22;11117;48.644;9.006;2023-07-28T14:54:32;21.20;99.90
21906;DHT22;11117;48.644;9.006;2023-07-28T14:56:58;21.50;99.90
21906;DHT22;11117;48.644;9.006;2023-07-28T14:59:23;21.90;99.90
21906;DHT22;11117;48.644;9.006;2023-07-28T15:01:49;22.40;99.90
21906;DHT22;11117;48.644;9.006;2023-07-28T15:04:14;22.80;99.90
21906;DHT22;11117;48.644;9.006;2023-07-28T15:06:40;23.00;99.90
21906;DHT22;11117;48.644;9.006;2023-07-28T15:09:05;23.20;99.90
21906;DHT22;11117;48.644;9.006;2023-07-28T15:11:31;23.10;99.90
21906;DHT22;11117;48.644;9.006;2023-07-28T15:13:57;23.20;99.90
21906;DHT22;11117;48.644;9.006;2023-07-28T15:16:23;23.20;99.90
21906;DHT22;11117;48.644;9.006;2023-07-28T15:18:48;22.60;99.90
21906;DHT22;11117;48.644;9.006;2023-07-28T15:21:14;22.30;99.90
21906;DHT22;11117;48.644;9.006;2023-07-28T15:23:39;22.20;99.90
21906;DHT22;11117;48.644;9.006;2023-07-28T15:26:05;22.00;99.90
21906;DHT22;11117;48.644;9.006;2023-07-28T15:28:31;21.70;99.90
21906;DHT22;11117;48.644;9.006;2023-07-28T15:30:56;21.70;99.90